Airfield :
LOGIN :

Register | Disclaimer

   EN    FR    IT 

 










Legend :    VFR   Marginal VFR   IFR   Intensive IFR   Very Intensive IFR
Visi :
Ceiling :
>= 8 km
>= 3000ft
5 to 8 km
1000 to 3000 ft
1500m to 5 km
500 to 1000 ft
800 to 1500m
200 to 500 ft
< 800m
< 200 ft
Symbols :   Thunderstorms  Fog  Heavy snow  Heavy precipitations  Wind > 20 kt
SIGMETs :     Misc.  Thunderstorms  Icing  Turbulence  Mountain Waves  Volcanic Ashes






- Airport Elevation : 117 ft
- IATA code : NWI


EGSH - Norwich

CURRENT METAR :
  • 170650Z 20006KT 170V240 1200 BR BKN003 14/13 Q1014 TEMPO 2000 BR

EXPIRED METARs :
  • 170620Z 19005KT 160V230 4000 BR NSC 13/13 Q1014 TEMPO 2000 BR
  • 170550Z 20004KT 4000 BR NSC 13/12 Q1014 TEMPO 2000 BR
  • 170520Z AUTO VRB03KT 5000 BR NCD 12/12 Q1014
  • 170450Z AUTO 20003KT 8000 NCD 13/12 Q1014
  • 170420Z AUTO 21003KT 8000 NCD 14/13 Q1014

TAF TAF EGSH
Valid from the 17 at 06:00 until the 17 at 15:00 UTC


170454Z 1706/1715 21005KT 9999 FEW045
TEMPO 1706/1709 4000 BR
PROB30
TEMPO 1706/1708 2000 BKN003
ATIS : +44 1603 420 640



MET'MAP, your aeronautical weather chart ! - Copyright ORBIFLY December 2007 - Disclaimer

ORBIFLY MET'MAP TEAM :

Programming & Development : Alexandra Zaïnal
Concept & original design : Baudouin d'Aumeries
Assistance for programming : Marc-Olivier Méhu
Technical & hardware support : Manuel Goepfert

Contact : metmap@orbifly.com




SOURCES & CREDITS :

   NOAA